Time;durP1;ratioP1;P1;durP2;ratioP2;P2;SDS_P1;SDS_P2;PMS_P1;PMS_P2;Temp;Humidity;BMP_temperature;BMP_pressure;BME280_temperature;BME280_humidity;BME280_pressure;Samples;Min_cycle;Max_cycle;Signal;HPM_P1;HPM_P2
2023/07/08 00:01:20;;;;;;;7.47;4.53;;;;;;;21.31;54.64;101500.72;5109760;28;20012;-61
2023/07/08 00:03:46;;;;;;;;;;;;;;;21.55;53.28;101500.16;5082988;28;20032;-61
2023/07/08 00:06:23;;;;;;;5.63;4.47;;;;;;;21.32;54.73;101497.88;5091332;28;19965;-61
2023/07/08 00:08:48;;;;;;;6.45;4.90;;;;;;;21.24;53.88;101491.50;5093398;28;20032;-61
2023/07/08 00:11:15;;;;;;;5.18;4.68;;;;;;;21.20;54.78;101490.09;5104800;28;20093;-61
2023/07/08 00:13:41;;;;;;;9.52;4.95;;;;;;;21.21;54.62;101491.81;5075476;28;20020;-62
2023/07/08 00:16:11;;;;;;;7.30;4.35;;;;;;;21.15;54.29;101492.38;5076900;28;20030;-61
2023/07/08 00:18:37;;;;;;;8.18;4.35;;;;;;;21.08;55.64;101486.72;5085752;28;20072;-62
2023/07/08 00:21:08;;;;;;;8.63;4.85;;;;;;;21.14;54.89;101486.13;5101067;28;20036;-61
2023/07/08 00:23:35;;;;;;;4.72;4.13;;;;;;;21.22;54.58;101483.53;5094213;28;20028;-61
2023/07/08 00:26:01;;;;;;;8.40;4.30;;;;;;;20.96;55.51;101482.53;5094832;28;20494;-61
2023/07/08 00:28:26;;;;;;;5.65;4.38;;;;;;;20.92;55.68;101483.84;5111651;28;20027;-61
2023/07/08 00:30:52;;;;;;;5.03;4.40;;;;;;;20.69;56.79;101483.34;5114863;28;20053;-61
2023/07/08 00:33:18;;;;;;;4.68;4.25;;;;;;;20.79;56.16;101485.00;5096564;28;20423;-61
2023/07/08 00:35:45;;;;;;;6.57;4.53;;;;;;;20.66;56.52;101489.03;5114740;28;20046;-61
2023/07/08 00:38:26;;;;;;;7.00;4.35;;;;;;;20.53;56.46;101479.41;5100978;28;20161;-62
2023/07/08 00:41:11;;;;;;;5.82;4.25;;;;;;;20.72;56.33;101475.78;5094355;28;20103;-62
2023/07/08 00:43:47;;;;;;;10.27;4.40;;;;;;;20.57;56.72;101472.69;5093696;28;20039;-61
2023/07/08 00:46:18;;;;;;;6.05;4.53;;;;;;;20.57;56.71;101470.00;5095286;28;20024;-61
2023/07/08 00:48:48;;;;;;;5.57;4.28;;;;;;;20.46;57.39;101478.25;5113988;28;20106;-61
2023/07/08 00:51:22;;;;;;;5.53;4.10;;;;;;;20.32;57.59;101457.06;5114416;28;20106;-61
2023/07/08 00:53:48;;;;;;;8.20;4.60;;;;;;;20.36;58.09;101466.63;5092882;28;20080;-61
2023/07/08 00:56:22;;;;;;;7.53;4.00;;;;;;;20.22;58.30;101461.66;5094397;28;20020;-61
2023/07/08 00:59:03;;;;;;;6.43;4.28;;;;;;;20.40;57.62;101466.16;5088937;28;20509;-61
2023/07/08 01:01:32;;;;;;;5.95;4.18;;;;;;;20.17;57.95;101460.22;5114537;28;20507;-62
2023/07/08 01:04:01;;;;;;;;;;;;;;;20.50;56.17;101468.84;5114561;28;20036;-61
2023/07/08 01:06:32;;;;;;;9.07;4.53;;;;;;;20.12;58.08;101470.63;5087286;28;19923;-61
2023/07/08 01:09:02;;;;;;;4.95;4.47;;;;;;;20.09;58.72;101460.13;5073403;28;20513;-61
2023/07/08 01:11:29;;;;;;;5.53;4.57;;;;;;;19.97;58.76;101458.53;5081525;28;20572;-61
2023/07/08 01:13:55;;;;;;;6.70;4.65;;;;;;;19.90;59.51;101468.22;5093802;28;20024;-61
2023/07/08 01:16:22;;;;;;;9.35;4.40;;;;;;;20.07;58.78;101459.41;5074215;28;20029;-61
2023/07/08 01:18:53;;;;;;;6.78;4.63;;;;;;;19.93;59.30;101459.81;5085823;28;20105;-61
2023/07/08 01:21:37;;;;;;;5.78;4.55;;;;;;;19.85;59.64;101465.94;5093910;28;20035;-61
2023/07/08 01:24:06;;;;;;;6.80;4.85;;;;;;;19.86;58.77;101466.81;5093238;28;20623;-61
2023/07/08 01:26:34;;;;;;;8.02;4.93;;;;;;;19.99;58.93;101467.34;5092881;28;20031;-61
2023/07/08 01:29:03;;;;;;;6.15;4.95;;;;;;;19.90;59.58;101460.13;5080732;28;20478;-61
2023/07/08 01:31:29;;;;;;;6.53;4.60;;;;;;;19.87;59.46;101458.53;5073165;28;20162;-62
2023/07/08 01:33:54;;;;;;;5.63;4.28;;;;;;;19.97;58.84;101461.22;5071623;28;20024;-62
2023/07/08 01:36:20;;;;;;;10.82;4.70;;;;;;;20.05;58.43;101447.88;5074388;28;20047;-61
2023/07/08 01:38:46;;;;;;;7.70;4.75;;;;;;;19.87;59.65;101441.50;5071586;28;20103;-61
2023/07/08 01:41:14;;;;;;;5.78;4.45;;;;;;;19.87;59.60;101457.69;5055418;28;20151;-61
2023/07/08 01:43:40;;;;;;;8.07;4.70;;;;;;;19.76;59.88;101453.28;5071589;28;20368;-61
2023/07/08 01:46:13;;;;;;;7.65;5.22;;;;;;;19.85;59.63;101460.53;5079288;28;20036;-61
2023/07/08 01:48:45;;;;;;;6.97;4.65;;;;;;;19.75;59.76;101465.09;5072852;28;20379;-61
2023/07/08 01:51:11;;;;;;;5.20;4.70;;;;;;;19.64;60.14;101457.94;5073121;28;20082;-61
2023/07/08 01:53:42;;;;;;;9.68;5.20;;;;;;;19.79;59.77;101452.16;5072317;28;20024;-61
2023/07/08 01:56:10;;;;;;;10.07;4.88;;;;;;;19.60;60.11;101450.28;5074058;28;20020;-61
2023/07/08 01:58:38;;;;;;;6.95;4.82;;;;;;;19.67;59.95;101448.75;5082847;28;20020;-61
2023/07/08 02:01:07;;;;;;;5.67;5.07;;;;;;;19.68;59.64;101437.81;5091808;28;20028;-61
2023/07/08 02:03:32;;;;;;;5.55;5.05;;;;;;;19.59;59.89;101437.75;5091781;28;20273;-61
2023/07/08 02:05:58;;;;;;;6.03;4.63;;;;;;;19.58;59.77;101431.50;5083506;28;20036;-61
2023/07/08 02:08:23;;;;;;;5.90;5.20;;;;;;;19.56;59.34;101428.13;5090097;28;20028;-61
2023/07/08 02:10:52;;;;;;;6.63;5.00;;;;;;;19.56;60.39;101427.25;5090744;28;20031;-62
2023/07/08 02:13:18;;;;;;;8.15;5.50;;;;;;;19.41;60.74;101426.81;5091383;28;20024;-62
2023/07/08 02:15:43;;;;;;;5.65;4.53;;;;;;;19.38;61.40;101422.53;5082824;28;20028;-61
2023/07/08 02:18:08;;;;;;;7.32;5.10;;;;;;;19.45;60.84;101420.16;5095538;28;20024;-61
2023/07/08 02:20:34;;;;;;;7.97;4.95;;;;;;;19.51;60.59;101411.50;5075257;28;20110;-61
2023/07/08 02:22:59;;;;;;;10.57;4.78;;;;;;;19.39;61.02;101423.41;5087741;28;20363;-61
2023/07/08 02:25:25;;;;;;;7.50;5.45;;;;;;;19.36;61.26;101415.59;5093667;28;20032;-61
2023/07/08 02:27:52;;;;;;;7.22;4.75;;;;;;;19.41;61.01;101410.63;5091223;28;20028;-62
2023/07/08 02:30:22;;;;;;;8.80;4.90;;;;;;;19.42;60.96;101415.88;5092379;28;20051;-61
2023/07/08 02:32:56;;;;;;;4.97;4.43;;;;;;;19.19;61.42;101411.75;5092160;28;20107;-61
2023/07/08 02:35:21;;;;;;;5.15;4.65;;;;;;;19.24;61.08;101398.69;5089586;28;20043;-62
2023/07/08 02:37:47;;;;;;;9.85;5.10;;;;;;;19.21;61.59;101393.59;5091142;28;20636;-61
2023/07/08 02:40:14;;;;;;;5.15;4.68;;;;;;;19.09;61.66;101381.19;5090616;28;20024;-62
2023/07/08 02:42:39;;;;;;;8.65;4.85;;;;;;;19.27;61.25;101396.56;5090914;28;20027;-61
2023/07/08 02:45:05;;;;;;;8.63;5.10;;;;;;;19.15;61.77;101396.81;5091464;28;20047;-61
2023/07/08 02:47:30;;;;;;;5.25;4.63;;;;;;;19.26;61.63;101402.09;5091961;28;20032;-61
2023/07/08 02:49:56;;;;;;;13.88;5.78;;;;;;;19.13;61.86;101385.34;5091869;28;20024;-62
2023/07/08 02:52:21;;;;;;;5.32;4.75;;;;;;;19.05;62.06;101404.88;5092174;28;20459;-61
2023/07/08 02:54:46;;;;;;;12.68;5.05;;;;;;;18.99;62.65;101403.59;5072116;28;20031;-61
2023/07/08 02:57:12;;;;;;;6.57;4.95;;;;;;;19.11;62.29;101415.13;5073219;28;20009;-61
2023/07/08 02:59:40;;;;;;;6.72;4.82;;;;;;;18.97;62.39;101419.06;5090559;28;20031;-61
2023/07/08 03:02:05;;;;;;;6.53;5.28;;;;;;;18.95;62.75;101414.81;5091804;28;20471;-61
2023/07/08 03:04:31;;;;;;;5.85;5.10;;;;;;;19.03;62.18;101413.13;5090457;28;20047;-61
2023/07/08 03:06:56;;;;;;;8.07;4.93;;;;;;;18.93;63.01;101420.31;5088739;28;20047;-61
2023/07/08 03:09:21;;;;;;;6.35;4.95;;;;;;;18.77;63.05;101420.00;5090124;28;20103;-61
2023/07/08 03:11:47;;;;;;;5.85;4.93;;;;;;;18.84;63.04;101413.91;5071147;28;20021;-62
2023/07/08 03:14:12;;;;;;;6.55;4.90;;;;;;;18.74;63.25;101421.13;5071579;28;20025;-63
2023/07/08 03:16:37;;;;;;;7.72;5.45;;;;;;;18.56;63.81;101412.78;5087196;28;20043;-61
2023/07/08 03:19:04;;;;;;;7.10;5.43;;;;;;;18.57;64.15;101410.94;5091662;28;20107;-62
2023/07/08 03:21:31;;;;;;;7.88;5.32;;;;;;;18.71;63.81;101410.56;5090400;28;20081;-61
2023/07/08 03:23:56;;;;;;;7.63;5.22;;;;;;;18.68;64.11;101418.06;5091127;28;20898;-61
2023/07/08 03:26:25;;;;;;;6.75;5.22;;;;;;;18.57;64.50;101419.03;5080004;28;20028;-61
2023/07/08 03:28:50;;;;;;;6.85;5.63;;;;;;;18.55;64.49;101420.97;5090375;28;20111;-62
2023/07/08 03:31:16;;;;;;;11.00;5.65;;;;;;;18.52;64.74;101414.03;5093226;28;20516;-61
2023/07/08 03:33:42;;;;;;;7.57;5.97;;;;;;;18.63;64.33;101417.63;5093201;28;20103;-61
2023/07/08 03:36:13;;;;;;;18.15;5.70;;;;;;;18.67;64.28;101427.97;5090377;28;20099;-62
2023/07/08 03:38:38;;;;;;;8.55;5.38;;;;;;;18.56;64.00;101404.69;5093010;28;20555;-61
2023/07/08 03:41:05;;;;;;;5.30;4.80;;;;;;;18.66;63.96;101422.75;5091600;28;20028;-61
2023/07/08 03:43:32;;;;;;;7.25;5.30;;;;;;;18.52;64.93;101426.66;5089826;28;20027;-62
2023/07/08 03:45:58;;;;;;;6.28;5.30;;;;;;;18.53;64.80;101425.66;5084059;28;20031;-61
2023/07/08 03:48:23;;;;;;;7.43;6.18;;;;;;;18.72;64.33;101423.06;5093662;28;20024;-62
2023/07/08 03:50:49;;;;;;;7.60;5.32;;;;;;;18.53;65.17;101429.22;5094694;28;20055;-61
2023/07/08 03:53:14;;;;;;;8.35;5.32;;;;;;;18.63;64.73;101436.50;5092725;28;20113;-62
2023/07/08 03:55:39;;;;;;;6.85;5.88;;;;;;;18.64;64.86;101438.19;5089151;28;20024;-61
2023/07/08 03:58:05;;;;;;;8.00;5.93;;;;;;;18.57;64.75;101433.34;5095133;28;20020;-61
2023/07/08 04:00:30;;;;;;;6.90;5.47;;;;;;;18.43;65.32;101439.06;5095878;28;20101;-61
2023/07/08 04:02:56;;;;;;;8.30;5.57;;;;;;;18.49;65.50;101433.16;5089626;28;20484;-61
2023/07/08 04:05:22;;;;;;;9.02;5.65;;;;;;;18.33;66.20;101435.47;5092840;28;20046;-61
2023/07/08 04:07:49;;;;;;;7.68;5.82;;;;;;;18.46;66.01;101435.25;5095654;27;20030;-62
2023/07/08 04:10:15;;;;;;;7.15;5.38;;;;;;;18.47;65.91;101436.97;5101503;27;20067;-61
2023/07/08 04:12:40;;;;;;;6.50;5.57;;;;;;;18.49;65.54;101435.84;5113793;27;20110;-61
2023/07/08 04:15:10;;;;;;;10.25;6.25;;;;;;;18.57;65.64;101440.56;5114423;27;20070;-62
2023/07/08 04:17:45;;;;;;;7.95;5.80;;;;;;;18.41;66.57;101445.56;5113647;28;20033;-61
2023/07/08 04:20:14;;;;;;;8.90;5.68;;;;;;;18.38;66.44;101439.50;5113585;27;20035;-61
2023/07/08 04:22:39;;;;;;;8.35;5.95;;;;;;;18.37;66.27;101437.75;5096766;27;20035;-62
2023/07/08 04:25:05;;;;;;;6.72;5.68;;;;;;;18.35;66.77;101445.16;5106399;27;20042;-61
2023/07/08 04:27:31;;;;;;;6.70;5.65;;;;;;;18.37;66.96;101445.84;5106214;27;20182;-61
2023/07/08 04:29:57;;;;;;;7.45;6.05;;;;;;;18.56;66.56;101446.94;5100034;27;20115;-61
2023/07/08 04:32:25;;;;;;;8.90;5.82;;;;;;;18.45;66.91;101439.81;5116741;27;20023;-61
2023/07/08 04:34:51;;;;;;;9.45;6.32;;;;;;;18.59;66.11;101436.75;5112301;28;20026;-61
2023/07/08 04:37:19;;;;;;;11.38;5.75;;;;;;;18.49;67.06;101432.31;5076258;28;20055;-61
2023/07/08 04:39:44;;;;;;;9.50;6.22;;;;;;;18.35;67.13;101420.91;5092446;28;20019;-61
2023/07/08 04:42:10;;;;;;;8.13;6.13;;;;;;;18.38;67.42;101428.72;5096276;28;20030;-61
2023/07/08 04:44:35;;;;;;;8.80;6.45;;;;;;;18.57;67.04;101427.09;5092397;28;20439;-61
2023/07/08 04:47:00;;;;;;;7.65;6.32;;;;;;;18.56;67.68;101434.34;5081805;28;20064;-61
2023/07/08 04:49:31;;;;;;;8.75;6.35;;;;;;;18.52;67.08;101430.19;5095534;28;20028;-61
2023/07/08 04:51:57;;;;;;;10.48;6.45;;;;;;;18.69;65.91;101439.50;5110767;28;20062;-61
2023/07/08 04:54:22;;;;;;;7.40;6.07;;;;;;;18.67;67.28;101433.38;5058842;28;20499;-61
2023/07/08 04:56:49;;;;;;;7.63;6.28;;;;;;;18.61;67.88;101434.75;5076780;28;20476;-62
2023/07/08 04:59:18;;;;;;;6.55;5.95;;;;;;;18.79;66.62;101426.94;5109155;28;20028;-62
2023/07/08 05:01:44;;;;;;;8.63;6.13;;;;;;;18.88;65.74;101438.72;5114313;28;20019;-62
2023/07/08 05:04:12;;;;;;;7.75;6.03;;;;;;;18.94;65.75;101426.56;5086325;27;20081;-61
2023/07/08 05:06:38;;;;;;;11.75;6.15;;;;;;;19.05;65.75;101431.84;5117757;27;20056;-61
2023/07/08 05:09:03;;;;;;;9.10;6.38;;;;;;;19.12;64.44;101433.03;5109226;28;20127;-61
2023/07/08 05:11:29;;;;;;;10.80;6.30;;;;;;;19.19;65.65;101436.84;5112883;28;20595;-62
2023/07/08 05:13:55;;;;;;;11.13;6.53;;;;;;;19.24;64.93;101440.00;5112843;28;20019;-61
2023/07/08 05:16:20;;;;;;;12.23;7.45;;;;;;;19.25;64.63;101430.91;5112134;28;20016;-61
2023/07/08 05:18:47;;;;;;;10.48;7.28;;;;;;;19.28;64.21;101430.63;5111096;28;20497;-62
2023/07/08 05:21:13;;;;;;;9.55;7.38;;;;;;;19.38;64.33;101435.19;5112125;28;20032;-61
2023/07/08 05:23:38;;;;;;;9.30;7.28;;;;;;;19.33;64.13;101427.53;5112976;28;20024;-61
2023/07/08 05:26:05;;;;;;;9.75;7.07;;;;;;;19.27;66.23;101438.88;5073483;28;20062;-61
2023/07/08 05:28:33;;;;;;;9.80;7.03;;;;;;;19.25;66.97;101432.75;5075350;28;20024;-61
2023/07/08 05:30:59;;;;;;;8.98;6.78;;;;;;;19.40;64.53;101433.19;5107993;27;20102;-61
2023/07/08 05:33:26;;;;;;;13.32;7.28;;;;;;;19.45;63.93;101422.84;5082356;27;20064;-62
2023/07/08 05:35:52;;;;;;;8.50;6.45;;;;;;;19.51;64.51;101425.84;5116838;27;20044;-61
2023/07/08 05:38:18;;;;;;;14.05;6.60;;;;;;;19.52;64.85;101418.59;5113184;28;20390;-61
2023/07/08 05:40:47;;;;;;;9.98;6.57;;;;;;;19.59;64.86;101426.97;5112782;28;20020;-61
2023/07/08 05:43:13;;;;;;;8.75;6.43;;;;;;;19.69;64.80;101425.16;5119119;27;20039;-61
2023/07/08 05:45:40;;;;;;;9.50;6.60;;;;;;;19.79;64.01;101417.06;5119019;27;20127;-61
2023/07/08 05:48:08;;;;;;;8.88;6.45;;;;;;;19.90;66.09;101425.00;5097911;27;20019;-61
2023/07/08 05:50:33;;;;;;;11.43;6.32;;;;;;;19.98;62.67;101419.75;5102729;28;20023;-61
2023/07/08 05:52:59;;;;;;;11.38;6.40;;;;;;;20.07;62.64;101423.44;5098115;28;20494;-61
2023/07/08 05:55:24;;;;;;;10.88;6.57;;;;;;;20.11;62.73;101420.28;5109909;28;20059;-61
2023/07/08 05:57:52;;;;;;;12.77;6.25;;;;;;;20.23;62.71;101415.56;5091171;28;20040;-61
2023/07/08 06:00:18;;;;;;;10.35;6.60;;;;;;;20.34;61.25;101420.81;5099178;28;20019;-61
2023/07/08 06:02:45;;;;;;;10.82;6.72;;;;;;;20.40;61.17;101424.78;5094837;27;20027;-61
2023/07/08 06:05:11;;;;;;;8.82;6.63;;;;;;;20.47;59.79;101416.94;5114403;27;20044;-60
2023/07/08 06:07:36;;;;;;;11.85;6.90;;;;;;;20.59;59.24;101432.03;5095466;28;20036;-61
2023/07/08 06:10:02;;;;;;;10.50;6.85;;;;;;;20.67;59.12;101437.53;5074046;28;20034;-61
2023/07/08 06:12:30;;;;;;;7.03;6.32;;;;;;;20.75;58.81;101432.22;5104876;28;20027;-61
2023/07/08 06:14:56;;;;;;;7.85;6.20;;;;;;;20.80;60.36;101427.22;5094326;28;20028;-61
2023/07/08 06:17:21;;;;;;;9.32;6.55;;;;;;;20.95;59.96;101445.66;5112879;28;20455;-61
2023/07/08 06:19:47;;;;;;;10.82;6.47;;;;;;;21.07;60.75;101449.88;5105945;28;20028;-61
2023/07/08 06:22:12;;;;;;;9.60;6.43;;;;;;;21.19;59.24;101450.53;5080557;28;20478;-61
2023/07/08 06:24:38;;;;;;;11.30;6.72;;;;;;;21.31;58.25;101443.88;5112062;28;20367;-62
2023/07/08 06:27:03;;;;;;;14.05;7.07;;;;;;;21.38;58.04;101446.88;5112789;28;20114;-61
2023/07/08 06:29:29;;;;;;;11.55;6.75;;;;;;;21.44;57.60;101439.00;5112477;28;20432;-61
2023/07/08 06:31:54;;;;;;;12.25;6.43;;;;;;;21.60;56.82;101443.72;5101568;28;20047;-62
2023/07/08 06:34:23;;;;;;;13.15;6.97;;;;;;;21.67;55.79;101442.09;5073956;28;20016;-62
2023/07/08 06:36:48;;;;;;;9.27;6.40;;;;;;;21.81;55.64;101447.97;5094853;28;20019;-61
2023/07/08 06:39:14;;;;;;;9.35;6.93;;;;;;;21.84;56.50;101444.97;5098474;28;20020;-61
2023/07/08 06:41:39;;;;;;;12.10;7.18;;;;;;;21.90;58.13;101444.34;5094465;27;20469;-62
2023/07/08 06:44:05;;;;;;;15.80;6.45;;;;;;;22.01;55.98;101449.50;5073841;28;20061;-61
2023/07/08 06:46:30;;;;;;;10.35;6.38;;;;;;;22.11;56.20;101442.13;5074047;28;20499;-61
2023/07/08 06:48:56;;;;;;;11.50;6.65;;;;;;;22.26;57.14;101447.00;5092131;28;20028;-61
2023/07/08 06:51:21;;;;;;;12.45;7.00;;;;;;;22.32;53.91;101449.09;5073920;28;20020;-61
2023/07/08 06:53:49;;;;;;;9.30;7.05;;;;;;;22.48;54.24;101442.94;5098838;28;20367;-62
2023/07/08 06:56:15;;;;;;;10.13;6.80;;;;;;;22.54;56.47;101439.59;5097882;28;20059;-61
2023/07/08 06:58:40;;;;;;;9.10;6.50;;;;;;;22.71;53.49;101432.38;5102889;28;20501;-61
2023/07/08 07:01:08;;;;;;;10.65;7.30;;;;;;;22.78;54.43;101430.72;5112384;28;20031;-61
2023/07/08 07:03:34;;;;;;;8.20;6.30;;;;;;;22.82;52.61;101429.38;5108878;28;20453;-61
2023/07/08 07:06:01;;;;;;;9.77;6.97;;;;;;;22.97;52.57;101435.06;5093219;28;20122;-61
2023/07/08 07:08:27;;;;;;;13.25;6.75;;;;;;;22.93;55.56;101439.94;5110730;28;20035;-61
2023/07/08 07:10:52;;;;;;;10.05;6.68;;;;;;;22.93;52.81;101433.66;5093324;28;20457;-61
2023/07/08 07:13:18;;;;;;;12.05;6.93;;;;;;;22.93;51.77;101436.38;5094901;28;20498;-61
2023/07/08 07:15:43;;;;;;;16.08;8.07;;;;;;;22.93;53.15;101433.66;5072250;28;20080;-61
2023/07/08 07:18:08;;;;;;;12.38;6.88;;;;;;;22.91;55.91;101428.38;5107364;28;20055;-61
2023/07/08 07:20:37;;;;;;;12.88;6.97;;;;;;;23.13;53.23;101440.56;5093931;28;20069;-61
2023/07/08 07:23:02;;;;;;;12.55;7.38;;;;;;;23.16;52.26;101437.53;5095037;28;20031;-62
2023/07/08 07:25:28;;;;;;;11.20;6.00;;;;;;;23.19;54.54;101439.91;5097381;28;20028;-61
2023/07/08 07:27:53;;;;;;;11.18;6.65;;;;;;;23.34;52.28;101435.53;5116155;28;20042;-62
2023/07/08 07:30:19;;;;;;;10.68;7.15;;;;;;;23.33;52.90;101433.00;5090207;28;20058;-61
2023/07/08 07:32:45;;;;;;;12.18;7.05;;;;;;;23.43;52.04;101439.09;5091353;28;20052;-62
2023/07/08 07:35:14;;;;;;;13.30;7.13;;;;;;;23.54;51.84;101436.09;5110523;27;20459;-62
2023/07/08 07:37:40;;;;;;;14.05;6.45;;;;;;;23.64;53.29;101430.47;5097629;27;20046;-62
2023/07/08 07:40:12;;;;;;;9.48;6.60;;;;;;;23.62;52.23;101439.81;5077068;28;20043;-61
2023/07/08 07:42:39;;;;;;;11.35;6.72;;;;;;;23.75;53.59;101441.06;5085899;27;20630;-61
2023/07/08 07:45:05;;;;;;;12.20;7.03;;;;;;;23.78;52.92;101434.44;5095819;27;20048;-62
2023/07/08 07:47:31;;;;;;;14.13;6.97;;;;;;;23.71;53.48;101423.41;5118655;27;20023;-62
2023/07/08 07:49:59;;;;;;;10.88;7.50;;;;;;;23.95;50.80;101432.59;5097046;28;20095;-61
2023/07/08 07:52:27;;;;;;;11.23;6.93;;;;;;;23.99;51.13;101434.78;5095706;28;20475;-62
2023/07/08 07:54:53;;;;;;;14.33;6.70;;;;;;;24.05;51.81;101427.81;5114915;28;20445;-62
2023/07/08 07:57:19;;;;;;;9.75;6.63;;;;;;;24.17;51.30;101423.72;5097480;28;20261;-62
2023/07/08 07:59:46;;;;;;;10.02;6.78;;;;;;;24.37;49.90;101423.34;5115396;28;20024;-61
2023/07/08 08:02:11;;;;;;;11.27;7.40;;;;;;;24.43;49.71;101426.25;5080640;28;20020;-62
2023/07/08 08:04:37;;;;;;;12.77;7.00;;;;;;;24.58;49.31;101417.38;5109864;27;20118;-62
2023/07/08 08:07:02;;;;;;;8.82;7.28;;;;;;;24.54;48.04;101426.94;5093090;28;20048;-62
2023/07/08 08:09:28;;;;;;;9.18;7.13;;;;;;;24.64;48.83;101422.97;5086952;28;20490;-62
2023/07/08 08:11:54;;;;;;;12.00;7.03;;;;;;;24.74;48.81;101435.50;5087877;28;20034;-62
2023/07/08 08:14:19;;;;;;;11.10;7.18;;;;;;;24.78;49.34;101423.28;5102679;28;20028;-63
2023/07/08 08:16:47;;;;;;;9.65;6.72;;;;;;;24.98;51.18;101440.88;5079156;28;20016;-64
2023/07/08 08:19:13;;;;;;;11.55;7.80;;;;;;;24.85;47.51;101440.56;5114285;28;20110;-65
2023/07/08 08:21:38;;;;;;;12.98;7.45;;;;;;;25.02;48.02;101442.22;5114838;28;20538;-63
2023/07/08 08:24:04;;;;;;;12.32;7.75;;;;;;;25.02;48.09;101449.53;5112647;27;20058;-65
2023/07/08 08:26:29;;;;;;;11.63;7.22;;;;;;;25.09;47.60;101443.22;5083345;28;20027;-62
2023/07/08 08:28:56;;;;;;;11.80;7.43;;;;;;;25.13;47.77;101450.03;5114207;28;20047;-66
2023/07/08 08:31:21;;;;;;;9.02;7.40;;;;;;;25.31;48.72;101454.34;5110282;27;20120;-65
2023/07/08 08:33:46;;;;;;;12.48;7.57;;;;;;;25.23;47.38;101447.06;5110212;27;20065;-66
2023/07/08 08:36:12;;;;;;;10.75;7.13;;;;;;;25.25;48.12;101452.34;5104209;28;20180;-66
2023/07/08 08:38:37;;;;;;;12.82;7.78;;;;;;;25.49;47.85;101457.66;5113370;28;20448;-67
2023/07/08 08:41:13;;;;;;;9.38;7.20;;;;;;;25.73;47.14;101459.34;5095847;28;20478;-63
2023/07/08 08:43:41;;;;;;;10.25;7.50;;;;;;;25.66;46.33;101452.09;5095884;28;20027;-67
2023/07/08 08:46:23;;;;;;;13.53;7.77;;;;;;;25.72;47.64;101467.72;5108659;28;20027;-68
2023/07/08 08:49:33;;;;;;;9.45;7.28;;;;;;;25.76;46.95;101466.31;5113599;28;20030;-67
2023/07/08 08:51:59;;;;;;;13.23;7.82;;;;;;;25.86;47.14;101450.63;5093577;28;20036;-66
2023/07/08 08:54:25;;;;;;;13.43;7.95;;;;;;;25.96;44.63;101451.19;5083087;28;20033;-66
2023/07/08 08:57:06;;;;;;;12.52;7.70;;;;;;;26.09;48.32;101461.50;5095448;28;20024;-66
2023/07/08 08:59:35;;;;;;;9.75;7.85;;;;;;;26.04;47.19;101469.38;5113437;28;20183;-64
2023/07/08 09:02:08;;;;;;;11.25;8.18;;;;;;;26.13;43.52;101464.72;5095495;28;20058;-63
2023/07/08 09:04:38;;;;;;;12.52;7.90;;;;;;;26.30;44.33;101482.63;5111404;28;20044;-67
2023/07/08 09:07:19;;;;;;;12.75;8.27;;;;;;;26.45;43.43;101474.47;5094959;28;20044;-65
2023/07/08 09:10:02;;;;;;;13.15;7.82;;;;;;;26.67;43.83;101461.78;5094583;28;20035;-65
2023/07/08 09:12:30;;;;;;;12.05;8.13;;;;;;;26.76;42.35;101462.56;5090678;28;20079;-67
2023/07/08 09:14:57;;;;;;;14.40;8.25;;;;;;;27.02;40.13;101452.00;5104152;28;20031;-67
2023/07/08 09:17:22;;;;;;;9.75;7.60;;;;;;;26.97;42.56;101454.44;5113448;28;20021;-72
2023/07/08 09:20:01;;;;;;;14.13;8.30;;;;;;;27.08;44.11;101448.50;5094963;28;20439;-72
2023/07/08 09:23:20;;;;;;;13.95;8.20;;;;;;;27.01;43.15;101450.31;5111583;28;20461;-71
2023/07/08 09:25:56;;;;;;;12.40;8.30;;;;;;;27.06;42.48;101442.41;5039965;28;20597;-72
2023/07/08 09:28:36;;;;;;;10.55;7.85;;;;;;;27.20;41.97;101457.06;5094919;28;20069;-72
2023/07/08 09:31:04;;;;;;;11.80;8.07;;;;;;;27.31;40.51;101461.22;5113151;28;20027;-73
2023/07/08 09:33:29;;;;;;;11.05;8.35;;;;;;;27.51;41.73;101445.88;5098144;28;20028;-73
2023/07/08 09:35:54;;;;;;;15.45;8.27;;;;;;;27.43;41.21;101448.72;5093695;28;20026;-72
2023/07/08 09:38:22;;;;;;;16.58;8.63;;;;;;;27.29;40.78;101455.91;5094373;28;20030;-66
2023/07/08 09:40:54;;;;;;;11.13;7.78;;;;;;;27.53;41.37;101445.69;5113053;28;20097;-71
2023/07/08 09:43:19;;;;;;;10.43;7.82;;;;;;;27.69;38.98;101439.13;5092830;28;20054;-66
2023/07/08 09:45:48;;;;;;;15.07;7.43;;;;;;;27.78;41.04;101429.75;5111643;28;20059;-67
2023/07/08 09:48:21;;;;;;;13.20;7.93;;;;;;;27.96;41.83;101421.94;5112670;28;20382;-69
2023/07/08 09:50:48;;;;;;;15.57;7.32;;;;;;;27.99;39.20;101435.22;5112886;28;20035;-67
2023/07/08 09:53:15;;;;;;;11.95;7.90;;;;;;;28.05;39.75;101433.59;5111498;28;20027;-68
2023/07/08 09:55:43;;;;;;;10.77;7.00;;;;;;;28.17;40.80;101433.91;5111174;28;20051;-61
2023/07/08 09:58:17;;;;;;;16.48;7.72;;;;;;;28.25;40.65;101440.06;5094965;28;20027;-61
2023/07/08 10:00:42;;;;;;;13.02;8.18;;;;;;;28.19;41.37;101435.41;5094010;28;20027;-61
2023/07/08 10:03:23;;;;;;;12.25;7.70;;;;;;;28.19;40.76;101429.91;5092742;28;20111;-62
2023/07/08 10:05:51;;;;;;;10.90;7.88;;;;;;;28.23;38.38;101431.19;5111747;28;20032;-71
2023/07/08 10:08:20;;;;;;;21.60;8.30;;;;;;;28.17;44.41;101432.00;5111699;28;20484;-69
2023/07/08 10:11:02;;;;;;;12.05;7.55;;;;;;;28.28;38.88;101428.72;5108531;27;20024;-70
2023/07/08 10:13:56;;;;;;;11.52;7.93;;;;;;;28.29;39.27;101443.25;5092545;27;20111;-75
2023/07/08 10:16:30;;;;;;;10.65;7.00;;;;;;;28.33;38.00;101430.03;5095917;27;20027;-74
2023/07/08 10:18:58;;;;;;;11.98;7.55;;;;;;;28.43;39.50;101436.00;5094473;28;20028;-74
2023/07/08 10:22:03;;;;;;;13.60;8.33;;;;;;;28.34;40.25;101435.28;5115511;27;20032;-73
2023/07/08 10:24:34;;;;;;;11.75;8.13;;;;;;;28.50;38.67;101436.88;5048704;28;20414;-76
2023/07/08 10:27:31;;;;;;;11.68;7.82;;;;;;;28.65;38.27;101437.66;5080053;28;20027;-62
2023/07/08 10:30:23;;;;;;;12.52;8.18;;;;;;;28.66;40.13;101433.00;5109219;27;20442;-61
2023/07/08 10:33:26;;;;;;;16.75;8.18;;;;;;;28.77;38.01;101432.44;5073888;28;20034;-61
2023/07/08 10:36:30;;;;;;;11.20;8.23;;;;;;;28.77;39.54;101435.19;5089546;28;20024;-61
2023/07/08 10:39:29;;;;;;;13.48;7.45;;;;;;;28.89;38.88;101439.03;5073495;28;20056;-61
2023/07/08 10:41:55;;;;;;;11.68;7.45;;;;;;;28.97;39.75;101433.38;5098168;28;20031;-61
2023/07/08 10:44:32;;;;;;;11.48;8.05;;;;;;;29.02;39.34;101443.75;5111119;27;20027;-61
2023/07/08 10:47:04;;;;;;;9.80;7.68;;;;;;;29.25;36.87;101445.31;5090356;28;20050;-61
2023/07/08 10:49:54;;;;;;;15.20;8.15;;;;;;;29.28;39.04;101444.91;5096363;27;20534;-61
2023/07/08 10:52:28;;;;;;;12.35;7.93;;;;;;;29.40;38.41;101452.31;5112592;28;20486;-61
2023/07/08 10:55:20;;;;;;;13.90;8.07;;;;;;;29.52;38.50;101452.53;5110070;28;20551;-61
2023/07/08 10:58:13;;;;;;;10.80;8.10;;;;;;;29.61;38.61;101447.72;5110967;27;20023;-61
2023/07/08 11:00:44;;;;;;;9.45;8.35;;;;;;;29.52;36.66;101449.81;5079099;28;20114;-61
2023/07/08 11:03:37;;;;;;;10.18;7.30;;;;;;;29.63;36.48;101446.50;5099824;28;20398;-61
2023/07/08 11:06:26;;;;;;;9.73;7.70;;;;;;;29.65;36.94;101436.16;5073202;28;20048;-61
2023/07/08 11:08:59;;;;;;;13.88;8.23;;;;;;;29.75;36.70;101443.13;5091605;28;20100;-62
2023/07/08 11:11:39;;;;;;;11.20;8.38;;;;;;;29.83;35.60;101445.69;5109599;28;20494;-61
2023/07/08 11:14:18;;;;;;;16.30;8.07;;;;;;;29.80;36.20;101441.47;5093140;28;20114;-61
2023/07/08 11:17:10;;;;;;;12.10;8.50;;;;;;;29.87;35.57;101445.03;5112083;28;20015;-61
2023/07/08 11:19:46;;;;;;;11.77;7.82;;;;;;;29.80;33.23;101452.44;5101086;28;20089;-61
2023/07/08 11:22:14;;;;;;;11.88;8.02;;;;;;;29.97;33.43;101450.09;5092230;28;20024;-62
2023/07/08 11:24:48;;;;;;;10.43;7.95;;;;;;;30.08;33.25;101441.25;5073294;28;20020;-62
2023/07/08 11:27:27;;;;;;;16.88;7.93;;;;;;;30.20;32.10;101435.97;5073446;28;20391;-61
2023/07/08 11:30:04;;;;;;;11.60;7.70;;;;;;;30.08;32.60;101444.00;5091082;28;20016;-62
2023/07/08 11:32:32;;;;;;;10.82;7.95;;;;;;;30.31;34.10;101435.34;5092774;28;20061;-62